createdAt,value
2023-04-30T00:00:36.250Z,102436.97
2023-04-30T00:03:04.984Z,102436.03
2023-04-30T00:05:32.888Z,102429.38
2023-04-30T00:08:00.637Z,102420.34
2023-04-30T00:10:28.767Z,102422.13
2023-04-30T00:12:57.098Z,102415.97
2023-04-30T00:15:26.361Z,102419.69
2023-04-30T00:17:54.240Z,102430.63
2023-04-30T00:20:22.248Z,102431.13
2023-04-30T00:22:50.045Z,102436.81
2023-04-30T00:25:17.796Z,102432.38
2023-04-30T00:27:45.992Z,102435.25
2023-04-30T00:30:14.310Z,102435.91
2023-04-30T00:32:45.819Z,102443.09
2023-04-30T00:35:13.709Z,102443.81
2023-04-30T00:37:42.280Z,102443.25
2023-04-30T00:40:11.186Z,102439.56
2023-04-30T00:42:38.972Z,102440.69
2023-04-30T00:45:08.214Z,102445.41
2023-04-30T00:47:37.069Z,102450.91
2023-04-30T00:50:07.614Z,102449.13
2023-04-30T00:52:35.488Z,102458.56
2023-04-30T00:55:03.350Z,102451.28
2023-04-30T00:57:31.653Z,102450.41
2023-04-30T01:00:00.359Z,102446.31
2023-04-30T01:02:28.620Z,102444.81
2023-04-30T01:04:57.546Z,102444.50
2023-04-30T01:07:28.329Z,102449.28
2023-04-30T01:09:56.497Z,102444.56
2023-04-30T01:12:39.018Z,102455.41
2023-04-30T01:15:16.033Z,102455.53
2023-04-30T01:17:49.436Z,102456.53
2023-04-30T01:20:17.350Z,102460.16
2023-04-30T01:22:56.568Z,102461.97
2023-04-30T01:25:45.337Z,102464.66
2023-04-30T01:28:19.122Z,102468.31
2023-04-30T01:30:48.135Z,102470.03
2023-04-30T01:33:16.181Z,102459.88
2023-04-30T01:36:11.142Z,102464.09
2023-04-30T01:38:57.595Z,102471.34
2023-04-30T01:41:34.317Z,102480.53
2023-04-30T01:44:14.841Z,102484.22
2023-04-30T01:46:47.612Z,102485.91
2023-04-30T01:49:26.480Z,102491.28
2023-04-30T01:52:01.558Z,102503.88
2023-04-30T01:54:40.011Z,102505.56
2023-04-30T01:57:08.880Z,102512.81
2023-04-30T01:59:41.042Z,102509.28
2023-04-30T02:02:08.773Z,102514.03
2023-04-30T02:04:36.807Z,102518.44
2023-04-30T02:07:05.195Z,102517.56
2023-04-30T02:09:33.158Z,102538.22
2023-04-30T02:12:01.823Z,102541.75
2023-04-30T02:14:31.793Z,102534.69
2023-04-30T02:17:01.003Z,102541.97
2023-04-30T02:19:28.775Z,102541.16
2023-04-30T02:21:56.562Z,102541.28
2023-04-30T02:24:24.291Z,102543.09
2023-04-30T02:26:52.194Z,102545.81
2023-04-30T02:29:20.040Z,102530.59
2023-04-30T02:31:47.877Z,102541.38
2023-04-30T02:34:17.046Z,102535.03
2023-04-30T02:36:44.790Z,102536.78
2023-04-30T02:39:12.612Z,102531.50
2023-04-30T02:41:40.428Z,102529.09
2023-04-30T02:44:08.207Z,102520.63
2023-04-30T02:46:35.959Z,102518.97
2023-04-30T02:49:03.678Z,102524.66
2023-04-30T02:51:32.771Z,102525.47
2023-04-30T02:54:01.199Z,102511.81
2023-04-30T02:56:28.993Z,102509.38
2023-04-30T02:58:56.880Z,102493.19
2023-04-30T03:01:24.869Z,102504.81
2023-04-30T03:03:52.656Z,102495.00
2023-04-30T03:06:20.501Z,102496.09
2023-04-30T03:08:49.584Z,102490.09
2023-04-30T03:11:17.275Z,102487.25
2023-04-30T03:13:45.429Z,102490.88
2023-04-30T03:16:13.451Z,102489.38
2023-04-30T03:18:41.219Z,102489.34
2023-04-30T03:21:09.662Z,102490.19
2023-04-30T03:23:38.236Z,102488.66
2023-04-30T03:26:08.431Z,102493.00
2023-04-30T03:28:36.213Z,102485.88
2023-04-30T03:31:05.408Z,102483.25
2023-04-30T03:33:33.627Z,102476.00
2023-04-30T03:36:01.410Z,102478.69
2023-04-30T03:38:29.138Z,102477.03
2023-04-30T03:40:56.830Z,102480.66
2023-04-30T03:43:25.906Z,102481.59
2023-04-30T03:45:54.344Z,102485.75
2023-04-30T03:48:22.367Z,102479.84
2023-04-30T03:50:50.082Z,102479.72
2023-04-30T03:53:17.736Z,102489.47
2023-04-30T03:55:46.370Z,102481.31
2023-04-30T03:58:14.226Z,102481.41
2023-04-30T04:00:45.706Z,102480.16
2023-04-30T04:03:13.813Z,102481.78
2023-04-30T04:05:42.718Z,102478.00
2023-04-30T04:08:11.237Z,102486.19
2023-04-30T04:10:39.788Z,102486.91
2023-04-30T04:13:07.830Z,102483.44
2023-04-30T04:15:36.179Z,102489.41
2023-04-30T04:18:07.006Z,102479.72
2023-04-30T04:20:35.182Z,102486.03
2023-04-30T04:23:03.159Z,102482.34
2023-04-30T04:25:31.050Z,102478.00
2023-04-30T04:27:59.263Z,102479.00
2023-04-30T04:30:27.277Z,102472.59
2023-04-30T04:32:55.135Z,102461.53
2023-04-30T04:35:24.181Z,102470.09
2023-04-30T04:37:51.844Z,102470.84
2023-04-30T04:40:19.832Z,102459.00
2023-04-30T04:42:51.251Z,102455.66
2023-04-30T04:45:19.380Z,102452.16
2023-04-30T04:47:48.242Z,102457.50
2023-04-30T04:50:16.586Z,102447.50
2023-04-30T04:52:45.936Z,102441.28
2023-04-30T04:55:15.609Z,102434.09
2023-04-30T04:57:43.366Z,102436.75
2023-04-30T05:00:12.759Z,102437.66
2023-04-30T05:02:40.560Z,102443.25
2023-04-30T05:05:09.074Z,102424.91
2023-04-30T05:07:36.745Z,102423.97
2023-04-30T05:10:07.277Z,102427.03
2023-04-30T05:12:35.122Z,102423.41
2023-04-30T05:15:04.532Z,102413.81
2023-04-30T05:17:32.291Z,102410.16
2023-04-30T05:20:00.021Z,102401.69
2023-04-30T05:22:28.230Z,102400.63
2023-04-30T05:24:55.960Z,102392.38
2023-04-30T05:27:25.409Z,102385.91
2023-04-30T05:29:53.324Z,102387.44
2023-04-30T05:32:21.365Z,102380.22
2023-04-30T05:34:49.168Z,102373.72
2023-04-30T05:37:17.635Z,102382.63
2023-04-30T05:39:45.564Z,102379.66
2023-04-30T05:42:13.282Z,102367.75
2023-04-30T05:44:42.864Z,102367.53
2023-04-30T05:47:10.524Z,102363.91
2023-04-30T05:49:38.352Z,102368.34
2023-04-30T05:52:06.595Z,102369.97
2023-04-30T05:54:34.860Z,102367.34
2023-04-30T05:57:02.654Z,102361.63
2023-04-30T05:59:30.317Z,102366.06
2023-04-30T06:01:59.707Z,102366.84
2023-04-30T06:04:27.568Z,102360.59
2023-04-30T06:06:55.616Z,102362.47
2023-04-30T06:09:23.575Z,102351.13
2023-04-30T06:11:52.197Z,102340.56
2023-04-30T06:14:22.692Z,102342.47
2023-04-30T06:16:50.804Z,102337.78
2023-04-30T06:19:20.673Z,102329.41
2023-04-30T06:21:48.389Z,102332.72
2023-04-30T06:24:16.356Z,102333.41
2023-04-30T06:26:44.300Z,102328.53
2023-04-30T06:29:11.993Z,102320.09
2023-04-30T06:31:39.752Z,102318.34
2023-04-30T06:34:07.461Z,102316.97
2023-04-30T06:36:36.905Z,102313.03
2023-04-30T06:39:05.184Z,102316.47
2023-04-30T06:41:33.111Z,102316.41
2023-04-30T06:44:01.095Z,102310.31
2023-04-30T06:46:28.874Z,102298.56
2023-04-30T06:48:56.626Z,102300.22
2023-04-30T06:51:24.329Z,102298.94
2023-04-30T06:53:53.532Z,102287.94
2023-04-30T06:56:21.948Z,102275.72
2023-04-30T06:58:50.189Z,102271.16
2023-04-30T07:01:18.325Z,102259.22
2023-04-30T07:03:46.327Z,102253.44
2023-04-30T07:06:14.643Z,102261.06
2023-04-30T07:08:43.832Z,102270.78
2023-04-30T07:11:13.680Z,102250.59
2023-04-30T07:13:41.548Z,102270.78
2023-04-30T07:16:10.630Z,102261.06
2023-04-30T07:18:39.536Z,102267.59
2023-04-30T07:21:08.232Z,102261.53
2023-04-30T07:23:36.129Z,102254.13
2023-04-30T07:26:04.040Z,102254.00
2023-04-30T07:28:33.507Z,102237.78
2023-04-30T07:31:02.172Z,102245.03
2023-04-30T07:33:30.462Z,102233.34
2023-04-30T07:35:58.956Z,102229.56
2023-04-30T07:38:26.976Z,102231.38
2023-04-30T07:40:54.762Z,102231.00
2023-04-30T07:43:22.434Z,102230.34
2023-04-30T07:45:53.509Z,102231.88
2023-04-30T07:48:21.463Z,102226.50
2023-04-30T07:50:51.476Z,102229.09
2023-04-30T07:53:20.584Z,102228.69
2023-04-30T07:55:48.344Z,102228.22
2023-04-30T07:58:16.233Z,102221.34
2023-04-30T08:00:44.167Z,102228.00
2023-04-30T08:03:13.496Z,102226.66
2023-04-30T08:05:41.635Z,102223.72
2023-04-30T08:08:09.786Z,102220.91
2023-04-30T08:10:37.722Z,102213.81
2023-04-30T08:13:06.098Z,102211.28
2023-04-30T08:15:34.892Z,102217.00
2023-04-30T08:18:03.798Z,102202.41
2023-04-30T08:20:33.530Z,102205.47
2023-04-30T08:23:01.312Z,102207.81
2023-04-30T08:25:29.107Z,102203.13
2023-04-30T08:27:56.897Z,102200.25
2023-04-30T08:30:24.887Z,102204.41
2023-04-30T08:32:53.281Z,102190.09
2023-04-30T08:35:22.600Z,102198.66
2023-04-30T08:37:51.831Z,102194.19
2023-04-30T08:40:19.841Z,102202.56
2023-04-30T08:42:55.114Z,102213.22
2023-04-30T08:45:23.198Z,102203.50
2023-04-30T08:47:51.489Z,102205.50
2023-04-30T08:50:20.737Z,102204.31
2023-04-30T08:52:48.476Z,102204.91
2023-04-30T08:55:17.624Z,102200.06
2023-04-30T08:57:45.850Z,102206.81
2023-04-30T09:00:15.320Z,102203.41
2023-04-30T09:02:44.823Z,102201.25
2023-04-30T09:05:14.699Z,102198.00
2023-04-30T09:08:01.069Z,102202.16
2023-04-30T09:10:35.491Z,102191.69
2023-04-30T09:13:04.541Z,102192.44
2023-04-30T09:15:33.807Z,102186.34
2023-04-30T09:18:13.332Z,102187.56
2023-04-30T09:20:56.241Z,102181.38
2023-04-30T09:23:24.590Z,102176.88
2023-04-30T09:25:53.950Z,102175.22
2023-04-30T09:28:24.495Z,102173.88
2023-04-30T09:30:53.304Z,102166.63
2023-04-30T09:33:21.410Z,102169.25
2023-04-30T09:35:49.626Z,102173.97
2023-04-30T09:38:28.434Z,102162.28
2023-04-30T09:40:59.878Z,102147.13
2023-04-30T09:43:27.865Z,102153.34
2023-04-30T09:45:55.875Z,102150.00
2023-04-30T09:48:25.191Z,102154.91
2023-04-30T09:50:55.221Z,102146.44
2023-04-30T09:53:24.252Z,102140.16
2023-04-30T09:55:52.780Z,102132.13
2023-04-30T09:58:24.500Z,102139.19
2023-04-30T10:00:55.288Z,102136.75
2023-04-30T10:03:25.565Z,102132.84
2023-04-30T10:05:55.873Z,102143.06
2023-04-30T10:08:28.890Z,102135.03
2023-04-30T10:11:04.663Z,102139.38
2023-04-30T10:13:39.873Z,102135.63
2023-04-30T10:16:13.472Z,102148.38
2023-04-30T10:18:44.521Z,102137.06
2023-04-30T10:21:14.970Z,102133.56
2023-04-30T10:23:43.625Z,102133.09
2023-04-30T10:26:12.545Z,102125.56
2023-04-30T10:28:42.067Z,102129.91
2023-04-30T10:31:11.503Z,102119.28
2023-04-30T10:33:49.832Z,102123.00
2023-04-30T10:36:25.724Z,102117.84
2023-04-30T10:38:54.657Z,102104.38
2023-04-30T10:41:22.456Z,102110.75
2023-04-30T10:43:52.311Z,102099.94
2023-04-30T10:46:23.709Z,102105.25
2023-04-30T10:48:53.800Z,102108.03
2023-04-30T10:51:22.676Z,102103.09
2023-04-30T10:53:52.875Z,102099.19
2023-04-30T10:56:34.721Z,102078.78
2023-04-30T10:59:03.971Z,102078.78
2023-04-30T11:01:32.640Z,102083.34
2023-04-30T11:04:08.557Z,102070.56
2023-04-30T11:06:51.007Z,102066.78
2023-04-30T11:09:19.185Z,102071.75
2023-04-30T11:11:47.552Z,102070.78
2023-04-30T11:14:22.925Z,102058.31
2023-04-30T11:16:51.326Z,102055.41
2023-04-30T11:19:19.688Z,102053.81
2023-04-30T11:22:23.010Z,102057.94
2023-04-30T11:24:55.339Z,102055.00
2023-04-30T11:27:25.222Z,102059.78
2023-04-30T11:29:56.238Z,102049.38
2023-04-30T11:32:26.031Z,102044.94
2023-04-30T11:34:54.618Z,102045.13
2023-04-30T11:37:30.824Z,102041.50
2023-04-30T11:40:01.179Z,102049.50
2023-04-30T11:42:30.162Z,102043.88
2023-04-30T11:45:06.740Z,102038.41
2023-04-30T11:47:42.917Z,102044.03
2023-04-30T11:50:12.210Z,102047.47
2023-04-30T11:52:40.508Z,102026.94
2023-04-30T11:55:09.894Z,102029.34
2023-04-30T11:57:41.995Z,102032.84
2023-04-30T12:00:14.391Z,102031.75
2023-04-30T12:02:43.632Z,102022.34
2023-04-30T12:05:17.063Z,102006.63
2023-04-30T12:07:49.692Z,102012.97
2023-04-30T12:10:19.805Z,102018.28
2023-04-30T12:12:51.230Z,102010.75
2023-04-30T12:15:26.899Z,102004.44
2023-04-30T12:17:56.340Z,102011.00
2023-04-30T12:20:26.237Z,102002.81
2023-04-30T12:22:54.209Z,101994.97
2023-04-30T12:25:23.888Z,101995.63
2023-04-30T12:27:53.372Z,102001.25
2023-04-30T12:30:26.793Z,102001.38
2023-04-30T12:32:58.622Z,101996.09
2023-04-30T12:35:29.659Z,101988.19
2023-04-30T12:38:03.876Z,101988.00
2023-04-30T12:40:31.801Z,101979.50
2023-04-30T12:43:03.665Z,101982.22
2023-04-30T12:45:48.130Z,101971.16
2023-04-30T12:48:17.172Z,101967.03
2023-04-30T12:50:49.868Z,101955.84
2023-04-30T12:53:17.737Z,101963.28
2023-04-30T12:55:45.866Z,101980.13
2023-04-30T12:58:16.857Z,101968.34
2023-04-30T13:00:50.504Z,101969.59
2023-04-30T13:03:20.991Z,101961.16
2023-04-30T13:05:51.106Z,101948.16
2023-04-30T13:08:20.794Z,101933.56
2023-04-30T13:10:49.667Z,101935.63
2023-04-30T13:13:20.268Z,101930.16
2023-04-30T13:15:49.938Z,101930.72
2023-04-30T13:18:17.823Z,101924.91
2023-04-30T13:20:46.701Z,101927.69
2023-04-30T13:23:15.033Z,101930.94
2023-04-30T13:25:43.639Z,101923.34
2023-04-30T13:28:11.564Z,101924.94
2023-04-30T13:30:41.069Z,101920.47
2023-04-30T13:33:10.366Z,101928.53
2023-04-30T13:35:38.291Z,101920.47
2023-04-30T13:38:06.939Z,101927.38
2023-04-30T13:40:34.713Z,101925.00
2023-04-30T13:43:02.554Z,101934.50
2023-04-30T13:45:30.648Z,101931.47
2023-04-30T13:47:58.596Z,101934.38
2023-04-30T13:50:27.951Z,101932.66
2023-04-30T13:52:55.694Z,101910.41
2023-04-30T13:55:24.456Z,101907.88
2023-04-30T13:57:52.290Z,101910.13
2023-04-30T14:00:22.017Z,101903.06
2023-04-30T14:02:50.034Z,101916.59
2023-04-30T14:05:18.322Z,101908.09
2023-04-30T14:07:47.704Z,101906.22
2023-04-30T14:10:15.638Z,101915.75
2023-04-30T14:12:43.517Z,101886.66
2023-04-30T14:15:11.898Z,101897.56
2023-04-30T14:17:39.917Z,101893.78
2023-04-30T14:20:09.145Z,101882.88
2023-04-30T14:22:38.577Z,101879.16
2023-04-30T14:25:09.656Z,101883.59
2023-04-30T14:27:38.011Z,101877.28
2023-04-30T14:30:07.981Z,101884.78
2023-04-30T14:32:36.768Z,101872.63
2023-04-30T14:35:05.357Z,101869.53
2023-04-30T14:37:33.430Z,101857.53
2023-04-30T14:40:02.096Z,101848.38
2023-04-30T14:42:31.378Z,101856.34
2023-04-30T14:44:59.718Z,101858.28
2023-04-30T14:47:28.165Z,101854.13
2023-04-30T14:49:58.678Z,101862.19
2023-04-30T14:52:26.546Z,101865.13
2023-04-30T14:54:54.306Z,101864.81
2023-04-30T14:57:23.504Z,101869.06
2023-04-30T14:59:55.085Z,101869.78
2023-04-30T15:02:23.454Z,101860.25
2023-04-30T15:04:51.254Z,101858.31
2023-04-30T15:07:19.952Z,101849.69
2023-04-30T15:09:48.503Z,101848.44
2023-04-30T15:12:16.335Z,101841.47
2023-04-30T15:14:44.766Z,101849.13
2023-04-30T15:17:14.033Z,101846.56
2023-04-30T15:19:41.813Z,101849.34
2023-04-30T15:22:09.629Z,101841.31
2023-04-30T15:24:38.165Z,101838.84
2023-04-30T15:27:05.971Z,101819.72
2023-04-30T15:29:34.174Z,101829.84
2023-04-30T15:32:02.807Z,101820.31
2023-04-30T15:34:32.137Z,101810.97
2023-04-30T15:36:59.929Z,101813.94
2023-04-30T15:39:27.818Z,101804.00
2023-04-30T15:41:55.696Z,101798.16
2023-04-30T15:44:23.831Z,101799.31
2023-04-30T15:46:52.582Z,101802.94
2023-04-30T15:49:21.192Z,101800.50
2023-04-30T15:51:51.654Z,101796.63
2023-04-30T15:54:19.490Z,101799.31
2023-04-30T15:56:48.409Z,101799.41
2023-04-30T15:59:18.468Z,101801.44
2023-04-30T16:01:47.977Z,101800.81
2023-04-30T16:04:15.959Z,101799.38
2023-04-30T16:06:47.195Z,101799.56
2023-04-30T16:09:19.587Z,101808.44
2023-04-30T16:11:48.370Z,101802.66
2023-04-30T16:14:16.596Z,101781.88
2023-04-30T16:16:44.646Z,101793.22
2023-04-30T16:19:13.113Z,101794.59
2023-04-30T16:21:41.454Z,101801.22
2023-04-30T16:24:10.312Z,101791.03
2023-04-30T16:26:39.467Z,101787.66
2023-04-30T16:29:07.261Z,101796.84
2023-04-30T16:31:35.112Z,101798.41
2023-04-30T16:34:02.933Z,101789.44
2023-04-30T16:36:31.172Z,101800.59
2023-04-30T16:38:59.054Z,101793.63
2023-04-30T16:41:26.853Z,101787.25
2023-04-30T16:43:55.966Z,101792.63
2023-04-30T16:46:23.801Z,101798.53
2023-04-30T16:48:51.689Z,101786.00
2023-04-30T16:51:19.575Z,101798.22
2023-04-30T16:53:47.351Z,101805.94
2023-04-30T16:56:15.150Z,101779.66
2023-04-30T16:58:42.902Z,101788.72
2023-04-30T17:01:12.151Z,101787.06
2023-04-30T17:03:40.368Z,101789.47
2023-04-30T17:06:08.489Z,101787.19
2023-04-30T17:08:37.267Z,101777.16
2023-04-30T17:11:06.345Z,101790.69
2023-04-30T17:13:34.185Z,101789.34
2023-04-30T17:16:02.403Z,101792.44
2023-04-30T17:18:33.256Z,101780.66
2023-04-30T17:21:01.186Z,101783.81
2023-04-30T17:23:28.974Z,101769.44
2023-04-30T17:25:57.220Z,101772.03
2023-04-30T17:28:25.074Z,101760.06
2023-04-30T17:30:52.895Z,101769.22
2023-04-30T17:33:20.674Z,101771.81
2023-04-30T17:35:49.989Z,101775.28
2023-04-30T17:38:18.041Z,101761.34
2023-04-30T17:40:45.737Z,101766.34
2023-04-30T17:43:14.039Z,101769.19
2023-04-30T17:45:41.842Z,101764.06
2023-04-30T17:48:10.380Z,101764.31
2023-04-30T17:50:38.472Z,101762.66
2023-04-30T17:53:07.866Z,101752.22
2023-04-30T17:55:35.678Z,101757.44
2023-04-30T17:58:03.886Z,101760.69
2023-04-30T18:00:31.732Z,101762.53
2023-04-30T18:02:59.558Z,101774.88
2023-04-30T18:05:27.573Z,101764.56
2023-04-30T18:07:55.404Z,101770.44
2023-04-30T18:10:24.615Z,101764.88
2023-04-30T18:12:53.868Z,101758.38
2023-04-30T18:15:22.121Z,101761.97
2023-04-30T18:17:52.656Z,101757.72
2023-04-30T18:20:21.357Z,101761.41
2023-04-30T18:22:49.211Z,101774.00
2023-04-30T18:25:17.565Z,101761.22
2023-04-30T18:27:46.913Z,101765.28
2023-04-30T18:30:14.999Z,101765.13
2023-04-30T18:32:44.244Z,101779.19
2023-04-30T18:35:12.604Z,101768.81
2023-04-30T18:37:40.470Z,101772.13
2023-04-30T18:40:09.769Z,101771.06
2023-04-30T18:42:38.464Z,101763.94
2023-04-30T18:45:09.314Z,101768.16
2023-04-30T18:47:37.072Z,101768.84
2023-04-30T18:50:06.463Z,101773.94
2023-04-30T18:52:34.257Z,101764.59
2023-04-30T18:55:02.138Z,101771.03
2023-04-30T18:57:31.828Z,101766.94
2023-04-30T18:59:59.544Z,101772.97
2023-04-30T19:02:29.509Z,101769.88
2023-04-30T19:04:57.782Z,101769.28
2023-04-30T19:07:26.061Z,101772.38
2023-04-30T19:09:54.152Z,101775.78
2023-04-30T19:12:22.106Z,101770.56
2023-04-30T19:14:50.189Z,101776.28
2023-04-30T19:17:20.175Z,101775.50
2023-04-30T19:19:50.782Z,101776.63
2023-04-30T19:22:18.450Z,101787.22
2023-04-30T19:24:46.444Z,101787.38
2023-04-30T19:27:14.214Z,101777.22
2023-04-30T19:29:41.998Z,101784.66
2023-04-30T19:32:10.308Z,101784.75
2023-04-30T19:34:38.190Z,101789.22
2023-04-30T19:37:07.663Z,101786.50
2023-04-30T19:39:36.544Z,101797.34
2023-04-30T19:42:05.980Z,101797.50
2023-04-30T19:44:33.864Z,101789.22
2023-04-30T19:47:01.683Z,101800.16
2023-04-30T19:49:29.571Z,101793.81
2023-04-30T19:51:57.305Z,101800.53
2023-04-30T19:54:26.437Z,101801.22
2023-04-30T19:56:54.694Z,101794.66
2023-04-30T19:59:22.429Z,101805.34
2023-04-30T20:01:52.487Z,101804.94
2023-04-30T20:04:23.389Z,101800.56
2023-04-30T20:06:56.961Z,101788.13
2023-04-30T20:09:26.331Z,101790.06
2023-04-30T20:11:55.393Z,101788.66
2023-04-30T20:14:24.057Z,101792.16
2023-04-30T20:16:54.179Z,101793.03
2023-04-30T20:19:22.700Z,101802.34
2023-04-30T20:21:50.977Z,101790.59
2023-04-30T20:24:19.663Z,101802.69
2023-04-30T20:26:48.983Z,101791.66
2023-04-30T20:29:18.504Z,101797.25
2023-04-30T20:31:46.487Z,101793.78
2023-04-30T20:34:14.449Z,101786.59
2023-04-30T20:36:42.172Z,101792.38
2023-04-30T20:39:10.487Z,101791.84
2023-04-30T20:41:38.290Z,101789.84
2023-04-30T20:44:07.394Z,101782.91
2023-04-30T20:46:36.206Z,101789.50
2023-04-30T20:49:05.117Z,101780.72
2023-04-30T20:51:33.370Z,101780.22
2023-04-30T20:54:01.361Z,101777.84
2023-04-30T20:56:29.293Z,101784.75
2023-04-30T20:58:57.404Z,101782.34
2023-04-30T21:01:27.729Z,101786.16
2023-04-30T21:03:56.313Z,101777.50
2023-04-30T21:06:24.334Z,101784.94
2023-04-30T21:08:51.991Z,101782.03
2023-04-30T21:11:20.469Z,101770.50
2023-04-30T21:13:50.754Z,101770.66
2023-04-30T21:16:19.492Z,101768.16
2023-04-30T21:18:49.563Z,101768.81
2023-04-30T21:21:17.975Z,101778.34
2023-04-30T21:23:48.009Z,101762.94
2023-04-30T21:26:16.447Z,101766.09
2023-04-30T21:28:44.195Z,101770.31
2023-04-30T21:31:11.952Z,101763.28
2023-04-30T21:33:39.802Z,101768.28
2023-04-30T21:36:09.208Z,101759.66
2023-04-30T21:38:38.139Z,101766.97
2023-04-30T21:41:05.803Z,101763.84
2023-04-30T21:43:33.724Z,101763.63
2023-04-30T21:46:02.699Z,101761.16
2023-04-30T21:48:30.911Z,101751.41
2023-04-30T21:50:58.893Z,101756.13
2023-04-30T21:53:28.557Z,101753.50
2023-04-30T21:55:57.143Z,101740.22
2023-04-30T21:58:24.919Z,101744.91
2023-04-30T22:00:54.791Z,101738.25
2023-04-30T22:03:22.625Z,101723.72
2023-04-30T22:05:50.452Z,101728.34
2023-04-30T22:08:18.146Z,101726.09
2023-04-30T22:10:47.705Z,101725.75
2023-04-30T22:13:15.478Z,101717.09
2023-04-30T22:15:48.082Z,101712.66
2023-04-30T22:18:16.239Z,101712.75
2023-04-30T22:20:44.054Z,101716.59
2023-04-30T22:23:12.237Z,101710.63
2023-04-30T22:25:39.952Z,101710.88
2023-04-30T22:28:10.172Z,101708.72
2023-04-30T22:30:38.346Z,101706.78
2023-04-30T22:33:06.356Z,101699.72
2023-04-30T22:35:38.058Z,101698.53
2023-04-30T22:38:06.354Z,101707.38
2023-04-30T22:40:35.565Z,101703.94
2023-04-30T22:43:04.946Z,101701.41
2023-04-30T22:45:36.944Z,101701.25
2023-04-30T22:48:05.778Z,101701.91
2023-04-30T22:50:33.734Z,101698.66
2023-04-30T22:53:01.565Z,101692.06
2023-04-30T22:55:31.484Z,101698.31
2023-04-30T22:57:59.917Z,101700.00
2023-04-30T23:00:27.801Z,101696.28
2023-04-30T23:02:57.142Z,101706.78
2023-04-30T23:05:24.946Z,101707.66
2023-04-30T23:07:52.984Z,101701.88
2023-04-30T23:10:20.660Z,101701.16
2023-04-30T23:12:48.380Z,101692.13
2023-04-30T23:15:16.325Z,101699.19
2023-04-30T23:17:44.622Z,101689.53
2023-04-30T23:20:14.034Z,101698.38
2023-04-30T23:22:41.793Z,101693.69
2023-04-30T23:25:09.723Z,101682.69
2023-04-30T23:27:37.497Z,101688.97
2023-04-30T23:30:06.442Z,101687.38
2023-04-30T23:32:34.480Z,101697.06
2023-04-30T23:35:02.476Z,101681.28
2023-04-30T23:37:31.690Z,101684.59
2023-04-30T23:40:00.812Z,101677.13
2023-04-30T23:42:28.515Z,101668.00
2023-04-30T23:44:56.230Z,101675.44
2023-04-30T23:47:24.309Z,101671.50
2023-04-30T23:49:52.109Z,101667.25
2023-04-30T23:52:19.804Z,101664.50
2023-04-30T23:54:49.081Z,101660.25
2023-04-30T23:57:19.682Z,101666.38
2023-04-30T23:59:47.389Z,101660.66
